sensor_id;sensor_type;location;lat;lon;timestamp;temperature;humidity
12470;DHT22;36499;46.484;13.832;2023-07-24T00:00:45;15.30;99.90
12470;DHT22;36499;46.484;13.832;2023-07-24T00:03:12;15.30;99.90
12470;DHT22;36499;46.484;13.832;2023-07-24T00:05:39;15.30;99.90
12470;DHT22;36499;46.484;13.832;2023-07-24T00:08:06;15.30;99.90
12470;DHT22;36499;46.484;13.832;2023-07-24T00:10:33;15.20;99.90
12470;DHT22;36499;46.484;13.832;2023-07-24T00:13:02;15.20;99.90
12470;DHT22;36499;46.484;13.832;2023-07-24T00:15:29;15.10;99.90
12470;DHT22;36499;46.484;13.832;2023-07-24T00:17:56;15.00;99.90
12470;DHT22;36499;46.484;13.832;2023-07-24T00:20:23;15.00;99.90
12470;DHT22;36499;46.484;13.832;2023-07-24T00:22:51;15.00;99.90
12470;DHT22;36499;46.484;13.832;2023-07-24T00:25:18;15.00;99.90
12470;DHT22;36499;46.484;13.832;2023-07-24T00:27:45;15.10;99.90
12470;DHT22;36499;46.484;13.832;2023-07-24T00:30:14;15.10;99.90
12470;DHT22;36499;46.484;13.832;2023-07-24T00:32:41;15.00;99.90
12470;DHT22;36499;46.484;13.832;2023-07-24T00:35:08;15.20;99.90
12470;DHT22;36499;46.484;13.832;2023-07-24T00:37:35;15.20;99.90
12470;DHT22;36499;46.484;13.832;2023-07-24T00:40:04;15.20;99.90
12470;DHT22;36499;46.484;13.832;2023-07-24T00:42:32;15.20;99.90
12470;DHT22;36499;46.484;13.832;2023-07-24T00:44:59;15.20;99.90
12470;DHT22;36499;46.484;13.832;2023-07-24T00:47:28;15.10;99.90
12470;DHT22;36499;46.484;13.832;2023-07-24T00:49:55;15.10;99.90
12470;DHT22;36499;46.484;13.832;2023-07-24T00:52:23;15.10;99.90
12470;DHT22;36499;46.484;13.832;2023-07-24T00:54:50;15.10;99.90
12470;DHT22;36499;46.484;13.832;2023-07-24T00:57:18;15.10;99.90
12470;DHT22;36499;46.484;13.832;2023-07-24T00:59:45;15.10;99.90
12470;DHT22;36499;46.484;13.832;2023-07-24T01:02:12;15.20;99.90
12470;DHT22;36499;46.484;13.832;2023-07-24T01:04:41;15.20;99.90
12470;DHT22;36499;46.484;13.832;2023-07-24T01:07:08;15.20;99.90
12470;DHT22;36499;46.484;13.832;2023-07-24T01:09:35;15.20;99.90
12470;DHT22;36499;46.484;13.832;2023-07-24T01:12:06;15.10;99.90
12470;DHT22;36499;46.484;13.832;2023-07-24T01:14:44;15.10;99.90
12470;DHT22;36499;46.484;13.832;2023-07-24T01:17:16;15.10;99.90
12470;DHT22;36499;46.484;13.832;2023-07-24T01:19:54;15.00;99.90
12470;DHT22;36499;46.484;13.832;2023-07-24T01:22:31;15.00;99.90
12470;DHT22;36499;46.484;13.832;2023-07-24T01:25:10;15.00;99.90
12470;DHT22;36499;46.484;13.832;2023-07-24T01:27:43;15.00;99.90
12470;DHT22;36499;46.484;13.832;2023-07-24T01:30:12;15.00;99.90
12470;DHT22;36499;46.484;13.832;2023-07-24T01:32:42;15.00;99.90
12470;DHT22;36499;46.484;13.832;2023-07-24T01:35:09;14.90;99.90
12470;DHT22;36499;46.484;13.832;2023-07-24T01:37:37;14.80;99.90
12470;DHT22;36499;46.484;13.832;2023-07-24T01:40:07;14.80;99.90
12470;DHT22;36499;46.484;13.832;2023-07-24T01:42:36;14.80;99.90
12470;DHT22;36499;46.484;13.832;2023-07-24T01:45:05;14.80;99.90
12470;DHT22;36499;46.484;13.832;2023-07-24T01:47:33;14.80;99.90
12470;DHT22;36499;46.484;13.832;2023-07-24T01:50:01;14.80;99.90
12470;DHT22;36499;46.484;13.832;2023-07-24T01:52:28;14.80;99.90
12470;DHT22;36499;46.484;13.832;2023-07-24T01:54:55;14.80;99.90
12470;DHT22;36499;46.484;13.832;2023-07-24T01:57:22;14.70;99.90
12470;DHT22;36499;46.484;13.832;2023-07-24T01:59:49;14.70;99.90
12470;DHT22;36499;46.484;13.832;2023-07-24T02:02:17;14.70;99.90
12470;DHT22;36499;46.484;13.832;2023-07-24T02:04:46;14.70;99.90
12470;DHT22;36499;46.484;13.832;2023-07-24T02:07:13;14.70;99.90
12470;DHT22;36499;46.484;13.832;2023-07-24T02:09:40;14.70;99.90
12470;DHT22;36499;46.484;13.832;2023-07-24T02:12:07;14.70;99.90
12470;DHT22;36499;46.484;13.832;2023-07-24T02:14:34;14.60;99.90
12470;DHT22;36499;46.484;13.832;2023-07-24T02:17:01;14.60;99.90
12470;DHT22;36499;46.484;13.832;2023-07-24T02:19:30;14.50;99.90
12470;DHT22;36499;46.484;13.832;2023-07-24T02:21:57;14.50;99.90
12470;DHT22;36499;46.484;13.832;2023-07-24T02:24:24;14.50;99.90
12470;DHT22;36499;46.484;13.832;2023-07-24T02:26:51;14.50;99.90
12470;DHT22;36499;46.484;13.832;2023-07-24T02:29:18;14.50;99.90
12470;DHT22;36499;46.484;13.832;2023-07-24T02:31:45;14.50;99.90
12470;DHT22;36499;46.484;13.832;2023-07-24T02:34:12;14.50;99.90
12470;DHT22;36499;46.484;13.832;2023-07-24T02:36:41;14.40;99.90
12470;DHT22;36499;46.484;13.832;2023-07-24T02:39:08;14.40;99.90
12470;DHT22;36499;46.484;13.832;2023-07-24T02:41:35;14.40;99.90
12470;DHT22;36499;46.484;13.832;2023-07-24T02:44:02;14.40;99.90
12470;DHT22;36499;46.484;13.832;2023-07-24T02:46:30;14.30;99.90
12470;DHT22;36499;46.484;13.832;2023-07-24T02:48:57;14.40;99.90
12470;DHT22;36499;46.484;13.832;2023-07-24T02:51:24;14.40;99.90
12470;DHT22;36499;46.484;13.832;2023-07-24T02:53:54;14.40;99.90
12470;DHT22;36499;46.484;13.832;2023-07-24T02:56:21;14.40;99.90
12470;DHT22;36499;46.484;13.832;2023-07-24T02:58:49;14.40;99.90
12470;DHT22;36499;46.484;13.832;2023-07-24T03:01:16;14.40;99.90
12470;DHT22;36499;46.484;13.832;2023-07-24T03:03:43;14.30;99.90
12470;DHT22;36499;46.484;13.832;2023-07-24T03:06:10;14.30;99.90
12470;DHT22;36499;46.484;13.832;2023-07-24T03:08:37;14.20;99.90
12470;DHT22;36499;46.484;13.832;2023-07-24T03:11:06;14.10;99.90
12470;DHT22;36499;46.484;13.832;2023-07-24T03:13:34;14.20;99.90
12470;DHT22;36499;46.484;13.832;2023-07-24T03:16:01;14.10;99.90
12470;DHT22;36499;46.484;13.832;2023-07-24T03:18:28;14.10;99.90
12470;DHT22;36499;46.484;13.832;2023-07-24T03:20:57;14.00;99.90
12470;DHT22;36499;46.484;13.832;2023-07-24T03:23:24;14.00;99.90
12470;DHT22;36499;46.484;13.832;2023-07-24T03:25:51;14.00;99.90
12470;DHT22;36499;46.484;13.832;2023-07-24T03:28:20;14.00;99.90
12470;DHT22;36499;46.484;13.832;2023-07-24T03:30:47;14.00;99.90
12470;DHT22;36499;46.484;13.832;2023-07-24T03:33:14;14.00;99.90
12470;DHT22;36499;46.484;13.832;2023-07-24T03:35:41;14.00;99.90
12470;DHT22;36499;46.484;13.832;2023-07-24T03:38:08;14.00;99.90
12470;DHT22;36499;46.484;13.832;2023-07-24T03:40:35;14.00;99.90
12470;DHT22;36499;46.484;13.832;2023-07-24T03:43:02;14.00;99.90
12470;DHT22;36499;46.484;13.832;2023-07-24T03:45:30;13.90;99.90
12470;DHT22;36499;46.484;13.832;2023-07-24T03:47:58;13.90;99.90
12470;DHT22;36499;46.484;13.832;2023-07-24T03:50:25;14.00;99.90
12470;DHT22;36499;46.484;13.832;2023-07-24T03:52:52;14.00;99.90
12470;DHT22;36499;46.484;13.832;2023-07-24T03:55:19;14.00;99.90
12470;DHT22;36499;46.484;13.832;2023-07-24T03:57:46;13.90;99.90
12470;DHT22;36499;46.484;13.832;2023-07-24T04:00:13;14.00;99.90
12470;DHT22;36499;46.484;13.832;2023-07-24T04:02:42;14.00;99.90
12470;DHT22;36499;46.484;13.832;2023-07-24T04:05:09;14.00;99.90
12470;DHT22;36499;46.484;13.832;2023-07-24T04:07:36;13.90;99.90
12470;DHT22;36499;46.484;13.832;2023-07-24T04:10:04;14.00;99.90
12470;DHT22;36499;46.484;13.832;2023-07-24T04:12:32;14.00;99.90
12470;DHT22;36499;46.484;13.832;2023-07-24T04:14:59;14.00;99.90
12470;DHT22;36499;46.484;13.832;2023-07-24T04:17:26;14.00;99.90
12470;DHT22;36499;46.484;13.832;2023-07-24T04:19:54;14.00;99.90
12470;DHT22;36499;46.484;13.832;2023-07-24T04:22:21;14.00;99.90
12470;DHT22;36499;46.484;13.832;2023-07-24T04:24:48;14.00;99.90
12470;DHT22;36499;46.484;13.832;2023-07-24T04:27:15;14.00;99.90
12470;DHT22;36499;46.484;13.832;2023-07-24T04:29:42;14.00;99.90
12470;DHT22;36499;46.484;13.832;2023-07-24T04:32:09;14.00;99.90
12470;DHT22;36499;46.484;13.832;2023-07-24T04:34:37;14.10;99.90
12470;DHT22;36499;46.484;13.832;2023-07-24T04:37:05;14.10;99.90
12470;DHT22;36499;46.484;13.832;2023-07-24T04:39:32;14.10;99.90
12470;DHT22;36499;46.484;13.832;2023-07-24T04:42:00;14.20;99.90
12470;DHT22;36499;46.484;13.832;2023-07-24T04:44:27;14.10;99.90
12470;DHT22;36499;46.484;13.832;2023-07-24T04:46:54;14.20;99.90
12470;DHT22;36499;46.484;13.832;2023-07-24T04:49:21;14.20;99.90
12470;DHT22;36499;46.484;13.832;2023-07-24T04:51:48;14.30;99.90
12470;DHT22;36499;46.484;13.832;2023-07-24T04:54:17;14.30;99.90
12470;DHT22;36499;46.484;13.832;2023-07-24T04:56:44;14.30;99.90
12470;DHT22;36499;46.484;13.832;2023-07-24T04:59:11;14.30;99.90
12470;DHT22;36499;46.484;13.832;2023-07-24T05:01:38;14.30;99.90
12470;DHT22;36499;46.484;13.832;2023-07-24T05:04:05;14.40;99.90
12470;DHT22;36499;46.484;13.832;2023-07-24T05:06:32;14.50;99.90
12470;DHT22;36499;46.484;13.832;2023-07-24T05:09:00;14.50;99.90
12470;DHT22;36499;46.484;13.832;2023-07-24T05:11:29;14.50;99.90
12470;DHT22;36499;46.484;13.832;2023-07-24T05:13:56;14.60;99.90
12470;DHT22;36499;46.484;13.832;2023-07-24T05:16:23;14.70;99.90
12470;DHT22;36499;46.484;13.832;2023-07-24T05:18:50;14.80;99.90
12470;DHT22;36499;46.484;13.832;2023-07-24T05:21:17;14.90;99.90
12470;DHT22;36499;46.484;13.832;2023-07-24T05:23:44;15.10;99.90
12470;DHT22;36499;46.484;13.832;2023-07-24T05:26:11;15.20;99.90
12470;DHT22;36499;46.484;13.832;2023-07-24T05:28:39;15.30;99.90
12470;DHT22;36499;46.484;13.832;2023-07-24T05:31:06;15.40;99.90
12470;DHT22;36499;46.484;13.832;2023-07-24T05:33:34;15.50;99.90
12470;DHT22;36499;46.484;13.832;2023-07-24T05:36:01;15.50;99.90
12470;DHT22;36499;46.484;13.832;2023-07-24T05:38:30;15.60;99.90
12470;DHT22;36499;46.484;13.832;2023-07-24T05:40:57;15.70;99.90
12470;DHT22;36499;46.484;13.832;2023-07-24T05:43:26;15.80;99.90
12470;DHT22;36499;46.484;13.832;2023-07-24T05:45:55;16.00;99.90
12470;DHT22;36499;46.484;13.832;2023-07-24T05:48:24;16.20;99.90
12470;DHT22;36499;46.484;13.832;2023-07-24T05:50:51;16.30;99.90
12470;DHT22;36499;46.484;13.832;2023-07-24T05:53:18;16.40;99.90
12470;DHT22;36499;46.484;13.832;2023-07-24T05:55:45;16.50;99.90
12470;DHT22;36499;46.484;13.832;2023-07-24T05:58:12;16.60;99.90
12470;DHT22;36499;46.484;13.832;2023-07-24T06:00:39;16.80;99.90
12470;DHT22;36499;46.484;13.832;2023-07-24T06:03:08;17.00;99.90
12470;DHT22;36499;46.484;13.832;2023-07-24T06:05:35;17.10;99.90
12470;DHT22;36499;46.484;13.832;2023-07-24T06:08:02;17.30;99.90
12470;DHT22;36499;46.484;13.832;2023-07-24T06:10:29;17.40;99.90
12470;DHT22;36499;46.484;13.832;2023-07-24T06:12:56;17.60;99.90
12470;DHT22;36499;46.484;13.832;2023-07-24T06:15:23;17.70;99.90
12470;DHT22;36499;46.484;13.832;2023-07-24T06:17:50;17.90;99.90
12470;DHT22;36499;46.484;13.832;2023-07-24T06:20:18;18.00;99.90
12470;DHT22;36499;46.484;13.832;2023-07-24T06:22:45;18.10;99.90
12470;DHT22;36499;46.484;13.832;2023-07-24T06:25:12;18.20;99.90
12470;DHT22;36499;46.484;13.832;2023-07-24T06:27:40;18.30;99.90
12470;DHT22;36499;46.484;13.832;2023-07-24T06:30:07;18.50;99.90
12470;DHT22;36499;46.484;13.832;2023-07-24T06:32:34;18.50;99.90
12470;DHT22;36499;46.484;13.832;2023-07-24T06:35:01;18.60;99.90
12470;DHT22;36499;46.484;13.832;2023-07-24T06:37:30;18.60;99.90
12470;DHT22;36499;46.484;13.832;2023-07-24T06:39:57;18.60;99.90
12470;DHT22;36499;46.484;13.832;2023-07-24T06:42:24;18.60;99.90
12470;DHT22;36499;46.484;13.832;2023-07-24T06:44:51;18.70;99.90
12470;DHT22;36499;46.484;13.832;2023-07-24T06:47:18;18.90;99.90
12470;DHT22;36499;46.484;13.832;2023-07-24T06:49:45;19.00;99.90
12470;DHT22;36499;46.484;13.832;2023-07-24T06:52:12;19.30;99.90
12470;DHT22;36499;46.484;13.832;2023-07-24T06:54:41;19.50;99.90
12470;DHT22;36499;46.484;13.832;2023-07-24T06:57:08;19.70;99.90
12470;DHT22;36499;46.484;13.832;2023-07-24T06:59:35;19.80;99.90
12470;DHT22;36499;46.484;13.832;2023-07-24T07:02:02;20.00;99.90
12470;DHT22;36499;46.484;13.832;2023-07-24T07:04:30;20.00;99.90
12470;DHT22;36499;46.484;13.832;2023-07-24T07:06:57;20.10;99.90
12470;DHT22;36499;46.484;13.832;2023-07-24T07:09:24;20.30;99.90
12470;DHT22;36499;46.484;13.832;2023-07-24T07:11:52;20.50;99.90
12470;DHT22;36499;46.484;13.832;2023-07-24T07:14:19;20.80;99.90
12470;DHT22;36499;46.484;13.832;2023-07-24T07:16:46;21.00;99.90
12470;DHT22;36499;46.484;13.832;2023-07-24T07:19:14;21.00;99.90
12470;DHT22;36499;46.484;13.832;2023-07-24T07:21:41;21.00;99.90
12470;DHT22;36499;46.484;13.832;2023-07-24T07:24:08;21.10;99.90
12470;DHT22;36499;46.484;13.832;2023-07-24T07:26:35;21.20;99.90
12470;DHT22;36499;46.484;13.832;2023-07-24T07:29:03;21.30;99.90
12470;DHT22;36499;46.484;13.832;2023-07-24T07:31:30;21.50;99.90
12470;DHT22;36499;46.484;13.832;2023-07-24T07:33:57;21.60;99.90
12470;DHT22;36499;46.484;13.832;2023-07-24T07:36:24;21.70;99.90
12470;DHT22;36499;46.484;13.832;2023-07-24T07:38:51;21.90;99.90
12470;DHT22;36499;46.484;13.832;2023-07-24T07:41:18;22.00;99.90
12470;DHT22;36499;46.484;13.832;2023-07-24T07:43:45;22.20;99.90
12470;DHT22;36499;46.484;13.832;2023-07-24T07:46:13;22.50;99.90
12470;DHT22;36499;46.484;13.832;2023-07-24T07:48:40;22.70;99.90
12470;DHT22;36499;46.484;13.832;2023-07-24T07:51:07;23.00;99.90
12470;DHT22;36499;46.484;13.832;2023-07-24T07:53:34;23.10;99.90
12470;DHT22;36499;46.484;13.832;2023-07-24T07:56:01;23.40;99.90
12470;DHT22;36499;46.484;13.832;2023-07-24T07:58:29;23.50;99.90
12470;DHT22;36499;46.484;13.832;2023-07-24T08:00:56;23.60;99.90
12470;DHT22;36499;46.484;13.832;2023-07-24T08:03:24;23.70;99.90
12470;DHT22;36499;46.484;13.832;2023-07-24T08:05:51;23.90;99.90
12470;DHT22;36499;46.484;13.832;2023-07-24T08:08:18;24.00;99.90
12470;DHT22;36499;46.484;13.832;2023-07-24T08:10:45;24.20;99.90
12470;DHT22;36499;46.484;13.832;2023-07-24T08:13:12;24.30;99.90
12470;DHT22;36499;46.484;13.832;2023-07-24T08:15:39;24.30;99.90
12470;DHT22;36499;46.484;13.832;2023-07-24T08:18:06;24.30;99.90
12470;DHT22;36499;46.484;13.832;2023-07-24T08:20:37;24.40;99.90
12470;DHT22;36499;46.484;13.832;2023-07-24T08:23:04;24.40;99.90
12470;DHT22;36499;46.484;13.832;2023-07-24T08:25:31;24.40;99.90
12470;DHT22;36499;46.484;13.832;2023-07-24T08:27:58;24.40;99.90
12470;DHT22;36499;46.484;13.832;2023-07-24T08:30:25;24.50;99.90
12470;DHT22;36499;46.484;13.832;2023-07-24T08:32:52;24.60;99.90
12470;DHT22;36499;46.484;13.832;2023-07-24T08:35:19;24.50;99.90
12470;DHT22;36499;46.484;13.832;2023-07-24T08:37:48;24.50;99.90
12470;DHT22;36499;46.484;13.832;2023-07-24T08:40:15;24.40;99.90
12470;DHT22;36499;46.484;13.832;2023-07-24T08:42:43;24.60;99.90
12470;DHT22;36499;46.484;13.832;2023-07-24T08:45:12;24.70;99.90
12470;DHT22;36499;46.484;13.832;2023-07-24T08:47:42;24.70;99.90
12470;DHT22;36499;46.484;13.832;2023-07-24T08:50:10;24.60;99.90
12470;DHT22;36499;46.484;13.832;2023-07-24T08:52:38;24.70;99.90
12470;DHT22;36499;46.484;13.832;2023-07-24T08:55:07;24.90;99.90
12470;DHT22;36499;46.484;13.832;2023-07-24T08:57:35;25.10;99.90
12470;DHT22;36499;46.484;13.832;2023-07-24T09:00:03;25.30;99.90
12470;DHT22;36499;46.484;13.832;2023-07-24T09:02:32;25.40;99.90
12470;DHT22;36499;46.484;13.832;2023-07-24T09:04:59;25.50;99.90
12470;DHT22;36499;46.484;13.832;2023-07-24T09:07:26;25.70;99.90
12470;DHT22;36499;46.484;13.832;2023-07-24T09:09:53;25.80;99.90
12470;DHT22;36499;46.484;13.832;2023-07-24T09:12:23;25.90;99.90
12470;DHT22;36499;46.484;13.832;2023-07-24T09:15:01;26.10;99.90
12470;DHT22;36499;46.484;13.832;2023-07-24T09:17:29;26.30;99.90
12470;DHT22;36499;46.484;13.832;2023-07-24T09:19:57;26.30;99.90
12470;DHT22;36499;46.484;13.832;2023-07-24T09:22:24;26.30;99.90
12470;DHT22;36499;46.484;13.832;2023-07-24T09:24:54;26.20;99.90
12470;DHT22;36499;46.484;13.832;2023-07-24T09:27:27;26.40;99.90
12470;DHT22;36499;46.484;13.832;2023-07-24T09:29:56;26.50;99.90
12470;DHT22;36499;46.484;13.832;2023-07-24T09:32:24;26.60;99.90
12470;DHT22;36499;46.484;13.832;2023-07-24T09:34:53;26.60;99.90
12470;DHT22;36499;46.484;13.832;2023-07-24T09:37:24;26.60;99.90
12470;DHT22;36499;46.484;13.832;2023-07-24T09:39:52;26.70;99.90
12470;DHT22;36499;46.484;13.832;2023-07-24T09:42:29;26.80;99.90
12470;DHT22;36499;46.484;13.832;2023-07-24T09:44:58;26.80;99.90
12470;DHT22;36499;46.484;13.832;2023-07-24T09:47:27;26.80;99.90
12470;DHT22;36499;46.484;13.832;2023-07-24T09:49:55;26.80;99.90
12470;DHT22;36499;46.484;13.832;2023-07-24T09:52:24;26.90;99.90
12470;DHT22;36499;46.484;13.832;2023-07-24T09:54:55;26.90;99.90
12470;DHT22;36499;46.484;13.832;2023-07-24T09:57:32;26.90;99.90
12470;DHT22;36499;46.484;13.832;2023-07-24T10:00:01;26.90;99.90
12470;DHT22;36499;46.484;13.832;2023-07-24T10:02:28;26.70;99.90
12470;DHT22;36499;46.484;13.832;2023-07-24T10:04:56;26.40;99.90
12470;DHT22;36499;46.484;13.832;2023-07-24T10:07:24;26.30;99.90
12470;DHT22;36499;46.484;13.832;2023-07-24T10:09:52;26.50;99.90
12470;DHT22;36499;46.484;13.832;2023-07-24T10:12:22;26.60;99.90
12470;DHT22;36499;46.484;13.832;2023-07-24T10:14:55;26.90;99.90
12470;DHT22;36499;46.484;13.832;2023-07-24T10:17:35;26.90;99.90
12470;DHT22;36499;46.484;13.832;2023-07-24T10:20:04;26.70;99.90
12470;DHT22;36499;46.484;13.832;2023-07-24T10:22:32;26.40;99.90
12470;DHT22;36499;46.484;13.832;2023-07-24T10:24:59;26.10;99.90
12470;DHT22;36499;46.484;13.832;2023-07-24T10:27:26;25.90;99.90
12470;DHT22;36499;46.484;13.832;2023-07-24T10:30:02;25.70;99.90
12470;DHT22;36499;46.484;13.832;2023-07-24T10:32:32;25.20;99.90
12470;DHT22;36499;46.484;13.832;2023-07-24T10:35:06;24.90;99.90
12470;DHT22;36499;46.484;13.832;2023-07-24T10:37:35;24.80;99.90
12470;DHT22;36499;46.484;13.832;2023-07-24T10:40:04;24.60;99.90
12470;DHT22;36499;46.484;13.832;2023-07-24T10:42:32;24.40;99.90
12470;DHT22;36499;46.484;13.832;2023-07-24T10:45:08;24.30;99.90
12470;DHT22;36499;46.484;13.832;2023-07-24T10:47:36;24.20;99.90
12470;DHT22;36499;46.484;13.832;2023-07-24T10:50:04;24.10;99.90
12470;DHT22;36499;46.484;13.832;2023-07-24T10:52:32;24.00;99.90
12470;DHT22;36499;46.484;13.832;2023-07-24T10:55:00;24.00;99.90
12470;DHT22;36499;46.484;13.832;2023-07-24T10:57:29;23.90;99.90
12470;DHT22;36499;46.484;13.832;2023-07-24T10:59:57;23.80;99.90
12470;DHT22;36499;46.484;13.832;2023-07-24T11:02:25;23.70;99.90
12470;DHT22;36499;46.484;13.832;2023-07-24T11:04:52;23.70;99.90
12470;DHT22;36499;46.484;13.832;2023-07-24T11:07:20;23.60;99.90
12470;DHT22;36499;46.484;13.832;2023-07-24T11:09:47;23.60;99.90
12470;DHT22;36499;46.484;13.832;2023-07-24T11:12:16;23.50;99.90
12470;DHT22;36499;46.484;13.832;2023-07-24T11:14:50;23.40;99.90
12470;DHT22;36499;46.484;13.832;2023-07-24T11:17:19;23.20;99.90
12470;DHT22;36499;46.484;13.832;2023-07-24T11:19:48;23.00;99.90
12470;DHT22;36499;46.484;13.832;2023-07-24T11:22:15;22.90;99.90
12470;DHT22;36499;46.484;13.832;2023-07-24T11:24:45;22.80;99.90
12470;DHT22;36499;46.484;13.832;2023-07-24T11:27:14;22.80;99.90
12470;DHT22;36499;46.484;13.832;2023-07-24T11:29:46;22.80;99.90
12470;DHT22;36499;46.484;13.832;2023-07-24T11:32:17;22.90;99.90
12470;DHT22;36499;46.484;13.832;2023-07-24T11:34:48;22.80;99.90
12470;DHT22;36499;46.484;13.832;2023-07-24T11:37:15;22.50;99.90
12470;DHT22;36499;46.484;13.832;2023-07-24T11:39:55;22.40;99.90
12470;DHT22;36499;46.484;13.832;2023-07-24T11:42:25;22.50;99.90
12470;DHT22;36499;46.484;13.832;2023-07-24T11:44:53;22.50;99.90
12470;DHT22;36499;46.484;13.832;2023-07-24T11:47:21;22.60;99.90
12470;DHT22;36499;46.484;13.832;2023-07-24T11:49:59;22.90;99.90
12470;DHT22;36499;46.484;13.832;2023-07-24T11:52:37;23.10;99.90
12470;DHT22;36499;46.484;13.832;2023-07-24T11:55:07;23.20;99.90
12470;DHT22;36499;46.484;13.832;2023-07-24T11:57:34;23.40;99.90
12470;DHT22;36499;46.484;13.832;2023-07-24T12:00:02;23.50;99.90
12470;DHT22;36499;46.484;13.832;2023-07-24T12:02:32;23.60;99.90
12470;DHT22;36499;46.484;13.832;2023-07-24T12:05:01;23.50;99.90
12470;DHT22;36499;46.484;13.832;2023-07-24T12:07:30;23.50;99.90
12470;DHT22;36499;46.484;13.832;2023-07-24T12:09:59;23.50;99.90
12470;DHT22;36499;46.484;13.832;2023-07-24T12:12:40;23.50;99.90
12470;DHT22;36499;46.484;13.832;2023-07-24T12:15:10;23.50;99.90
12470;DHT22;36499;46.484;13.832;2023-07-24T12:17:41;23.40;99.90
12470;DHT22;36499;46.484;13.832;2023-07-24T12:20:10;23.40;99.90
12470;DHT22;36499;46.484;13.832;2023-07-24T12:22:38;23.40;98.60
12470;DHT22;36499;46.484;13.832;2023-07-24T12:25:06;23.50;98.40
12470;DHT22;36499;46.484;13.832;2023-07-24T12:27:33;23.60;99.90
12470;DHT22;36499;46.484;13.832;2023-07-24T12:30:01;23.70;99.90
12470;DHT22;36499;46.484;13.832;2023-07-24T12:32:28;23.80;99.90
12470;DHT22;36499;46.484;13.832;2023-07-24T12:34:56;23.90;99.90
12470;DHT22;36499;46.484;13.832;2023-07-24T12:37:24;24.00;99.90
12470;DHT22;36499;46.484;13.832;2023-07-24T12:39:51;24.30;99.90
12470;DHT22;36499;46.484;13.832;2023-07-24T12:42:18;24.70;99.90
12470;DHT22;36499;46.484;13.832;2023-07-24T12:44:45;24.90;99.90
12470;DHT22;36499;46.484;13.832;2023-07-24T12:47:12;25.10;99.90
12470;DHT22;36499;46.484;13.832;2023-07-24T12:49:39;25.10;99.90
12470;DHT22;36499;46.484;13.832;2023-07-24T12:52:07;25.00;99.90
12470;DHT22;36499;46.484;13.832;2023-07-24T12:54:35;24.90;99.90
12470;DHT22;36499;46.484;13.832;2023-07-24T12:57:03;24.90;99.90
12470;DHT22;36499;46.484;13.832;2023-07-24T12:59:30;25.00;99.90
12470;DHT22;36499;46.484;13.832;2023-07-24T13:01:57;25.10;99.90
12470;DHT22;36499;46.484;13.832;2023-07-24T13:04:24;25.20;99.90
12470;DHT22;36499;46.484;13.832;2023-07-24T13:06:52;25.20;99.90
12470;DHT22;36499;46.484;13.832;2023-07-24T13:09:19;25.10;99.90
12470;DHT22;36499;46.484;13.832;2023-07-24T13:11:48;25.20;99.90
12470;DHT22;36499;46.484;13.832;2023-07-24T13:14:17;25.10;99.90
12470;DHT22;36499;46.484;13.832;2023-07-24T13:16:44;25.10;99.90
12470;DHT22;36499;46.484;13.832;2023-07-24T13:19:11;24.90;99.90
12470;DHT22;36499;46.484;13.832;2023-07-24T13:21:39;24.70;99.90
12470;DHT22;36499;46.484;13.832;2023-07-24T13:24:06;24.60;99.90
12470;DHT22;36499;46.484;13.832;2023-07-24T13:26:33;24.40;99.90
12470;DHT22;36499;46.484;13.832;2023-07-24T13:29:02;24.30;99.90
12470;DHT22;36499;46.484;13.832;2023-07-24T13:31:31;24.10;99.90
12470;DHT22;36499;46.484;13.832;2023-07-24T13:33:58;24.00;99.90
12470;DHT22;36499;46.484;13.832;2023-07-24T13:36:25;23.90;99.90
12470;DHT22;36499;46.484;13.832;2023-07-24T13:38:52;23.80;99.90
12470;DHT22;36499;46.484;13.832;2023-07-24T13:41:20;23.60;99.90
12470;DHT22;36499;46.484;13.832;2023-07-24T13:43:47;23.50;99.90
12470;DHT22;36499;46.484;13.832;2023-07-24T13:46:15;23.20;99.90
12470;DHT22;36499;46.484;13.832;2023-07-24T13:48:42;23.00;99.90
12470;DHT22;36499;46.484;13.832;2023-07-24T13:51:10;22.80;99.90
12470;DHT22;36499;46.484;13.832;2023-07-24T13:53:37;22.50;99.90
12470;DHT22;36499;46.484;13.832;2023-07-24T13:56:05;22.30;99.90
12470;DHT22;36499;46.484;13.832;2023-07-24T13:58:32;22.20;99.90
12470;DHT22;36499;46.484;13.832;2023-07-24T14:00:59;22.10;99.90
12470;DHT22;36499;46.484;13.832;2023-07-24T14:03:28;22.00;99.90
12470;DHT22;36499;46.484;13.832;2023-07-24T14:05:55;22.00;99.90
12470;DHT22;36499;46.484;13.832;2023-07-24T14:08:23;21.90;99.90
12470;DHT22;36499;46.484;13.832;2023-07-24T14:10:50;21.80;99.90
12470;DHT22;36499;46.484;13.832;2023-07-24T14:13:18;21.70;99.90
12470;DHT22;36499;46.484;13.832;2023-07-24T14:15:45;21.60;99.90
12470;DHT22;36499;46.484;13.832;2023-07-24T14:18:12;21.50;99.90
12470;DHT22;36499;46.484;13.832;2023-07-24T14:20:40;21.50;99.90
12470;DHT22;36499;46.484;13.832;2023-07-24T14:23:07;21.50;99.90
12470;DHT22;36499;46.484;13.832;2023-07-24T14:25:35;21.50;99.90
12470;DHT22;36499;46.484;13.832;2023-07-24T14:28:02;21.60;99.90
12470;DHT22;36499;46.484;13.832;2023-07-24T14:30:29;21.60;99.90
12470;DHT22;36499;46.484;13.832;2023-07-24T14:32:56;21.50;99.90
12470;DHT22;36499;46.484;13.832;2023-07-24T14:35:23;21.50;99.90
12470;DHT22;36499;46.484;13.832;2023-07-24T14:37:52;21.40;99.90
12470;DHT22;36499;46.484;13.832;2023-07-24T14:40:19;21.30;99.90
12470;DHT22;36499;46.484;13.832;2023-07-24T14:42:46;21.10;99.90
12470;DHT22;36499;46.484;13.832;2023-07-24T14:45:13;21.00;99.90
12470;DHT22;36499;46.484;13.832;2023-07-24T14:47:40;21.00;99.90
12470;DHT22;36499;46.484;13.832;2023-07-24T14:50:08;20.90;99.90
12470;DHT22;36499;46.484;13.832;2023-07-24T14:52:35;20.80;99.90
12470;DHT22;36499;46.484;13.832;2023-07-24T14:55:06;20.80;99.90
12470;DHT22;36499;46.484;13.832;2023-07-24T14:57:33;20.70;99.90
12470;DHT22;36499;46.484;13.832;2023-07-24T15:00:00;20.60;99.90
12470;DHT22;36499;46.484;13.832;2023-07-24T15:02:28;20.50;99.90
12470;DHT22;36499;46.484;13.832;2023-07-24T15:04:58;20.50;99.90
12470;DHT22;36499;46.484;13.832;2023-07-24T15:07:25;20.30;99.90
12470;DHT22;36499;46.484;13.832;2023-07-24T15:09:52;20.20;99.90
12470;DHT22;36499;46.484;13.832;2023-07-24T15:12:21;20.10;99.90
12470;DHT22;36499;46.484;13.832;2023-07-24T15:14:48;20.10;99.90
12470;DHT22;36499;46.484;13.832;2023-07-24T15:17:15;20.10;99.90
12470;DHT22;36499;46.484;13.832;2023-07-24T15:19:43;20.00;99.90